createdAt,value
2023-10-19T00:00:40.791Z,76.08
2023-10-19T00:03:29.061Z,76.25
2023-10-19T00:05:57.500Z,76.22
2023-10-19T00:08:25.472Z,76.40
2023-10-19T00:11:03.724Z,76.38
2023-10-19T00:13:32.444Z,76.27
2023-10-19T00:16:00.979Z,76.51
2023-10-19T00:18:28.840Z,76.09
2023-10-19T00:21:00.300Z,76.54
2023-10-19T00:23:41.151Z,76.51
2023-10-19T00:26:10.214Z,76.52
2023-10-19T00:28:42.176Z,76.33
2023-10-19T00:31:10.295Z,76.47
2023-10-19T00:33:40.486Z,76.30
2023-10-19T00:36:10.665Z,76.37
2023-10-19T00:38:39.697Z,76.60
2023-10-19T00:41:13.221Z,76.46
2023-10-19T00:43:45.550Z,76.38
2023-10-19T00:46:25.515Z,76.45
2023-10-19T00:48:59.440Z,76.44
2023-10-19T00:51:34.767Z,76.62
2023-10-19T00:54:11.793Z,76.62
2023-10-19T00:56:45.954Z,76.64
2023-10-19T00:59:21.337Z,76.61
2023-10-19T01:01:55.430Z,76.81
2023-10-19T01:04:24.561Z,76.45
2023-10-19T01:07:21.726Z,76.79
2023-10-19T01:09:54.825Z,76.77
2023-10-19T01:12:34.376Z,76.76
2023-10-19T01:15:25.070Z,76.57
2023-10-19T01:18:00.315Z,76.77
2023-10-19T01:20:31.004Z,76.63
2023-10-19T01:23:11.316Z,76.61
2023-10-19T01:25:56.886Z,76.63
2023-10-19T01:28:47.043Z,77.10
2023-10-19T01:31:29.741Z,76.88
2023-10-19T01:34:00.206Z,77.10
2023-10-19T01:36:28.867Z,76.94
2023-10-19T01:39:02.629Z,76.97
2023-10-19T01:41:33.521Z,76.95
2023-10-19T01:44:22.255Z,77.07
2023-10-19T01:46:50.543Z,77.23
2023-10-19T01:49:36.497Z,77.43
2023-10-19T01:52:05.644Z,77.53
2023-10-19T01:54:35.849Z,77.28
2023-10-19T01:57:04.746Z,77.23
2023-10-19T01:59:35.674Z,77.36
2023-10-19T02:02:03.800Z,77.40
2023-10-19T02:04:36.505Z,77.52
2023-10-19T02:07:04.649Z,77.45
2023-10-19T02:09:34.004Z,77.62
2023-10-19T02:12:07.178Z,77.35
2023-10-19T02:14:35.773Z,77.75
2023-10-19T02:17:05.092Z,77.84
2023-10-19T02:19:34.287Z,77.84
2023-10-19T02:22:13.013Z,77.79
2023-10-19T02:24:40.959Z,78.27
2023-10-19T02:27:13.654Z,77.60
2023-10-19T02:29:48.254Z,77.76
2023-10-19T02:32:19.573Z,77.95
2023-10-19T02:34:47.698Z,78.23
2023-10-19T02:37:15.647Z,78.19
2023-10-19T02:39:45.136Z,77.71
2023-10-19T02:42:12.971Z,78.15
2023-10-19T02:44:41.124Z,78.23
2023-10-19T02:47:10.722Z,78.24
2023-10-19T02:49:44.964Z,78.22
2023-10-19T02:52:14.483Z,78.20
2023-10-19T02:54:43.214Z,78.72
2023-10-19T02:57:14.868Z,78.62
2023-10-19T02:59:43.314Z,78.44
2023-10-19T03:02:14.264Z,78.54
2023-10-19T03:04:47.595Z,78.45
2023-10-19T03:07:17.271Z,78.60
2023-10-19T03:09:55.218Z,78.56
2023-10-19T03:12:27.858Z,78.71
2023-10-19T03:14:56.086Z,78.59
2023-10-19T03:17:26.883Z,78.83
2023-10-19T03:19:56.958Z,78.92
2023-10-19T03:22:26.043Z,78.87
2023-10-19T03:25:12.981Z,79.05
2023-10-19T03:27:41.569Z,79.08
2023-10-19T03:30:15.724Z,78.96
2023-10-19T03:32:44.140Z,79.01
2023-10-19T03:35:17.195Z,79.13
2023-10-19T03:37:48.733Z,79.17
2023-10-19T03:40:21.683Z,79.45
2023-10-19T03:42:49.605Z,79.51
2023-10-19T03:45:17.362Z,79.28
2023-10-19T03:47:46.085Z,79.51
2023-10-19T03:50:21.800Z,79.34
2023-10-19T03:52:49.972Z,79.45
2023-10-19T03:55:24.478Z,79.55
2023-10-19T03:57:55.851Z,79.34
2023-10-19T04:00:29.806Z,79.56
2023-10-19T04:03:00.484Z,79.49
2023-10-19T04:05:30.012Z,79.47
2023-10-19T04:08:02.267Z,79.59
2023-10-19T04:10:36.401Z,79.55
2023-10-19T04:13:04.799Z,79.35
2023-10-19T04:15:37.005Z,79.48
2023-10-19T04:18:12.615Z,79.47
2023-10-19T04:20:56.075Z,79.57
2023-10-19T04:23:36.474Z,79.41
2023-10-19T04:26:12.230Z,79.31
2023-10-19T04:28:51.751Z,79.08
2023-10-19T04:31:20.549Z,79.24
2023-10-19T04:33:48.455Z,79.47
2023-10-19T04:36:17.682Z,79.28
2023-10-19T04:38:45.639Z,78.91
2023-10-19T04:41:13.535Z,79.22
2023-10-19T04:43:41.504Z,79.26
2023-10-19T04:46:14.319Z,79.18
2023-10-19T04:48:43.618Z,79.13
2023-10-19T04:51:12.033Z,79.28
2023-10-19T04:53:40.002Z,79.05
2023-10-19T04:56:10.433Z,79.07
2023-10-19T04:58:38.940Z,79.17
2023-10-19T05:01:06.934Z,79.05
2023-10-19T05:03:36.307Z,79.07
2023-10-19T05:06:04.684Z,79.23
2023-10-19T05:08:34.193Z,79.06
2023-10-19T05:11:02.957Z,78.68
2023-10-19T05:13:32.706Z,78.72
2023-10-19T05:16:00.778Z,78.70
2023-10-19T05:18:29.129Z,78.68
2023-10-19T05:20:57.107Z,78.47
2023-10-19T05:23:25.590Z,78.69
2023-10-19T05:25:55.542Z,78.71
2023-10-19T05:28:23.405Z,78.33
2023-10-19T05:30:51.383Z,78.55
2023-10-19T05:33:22.561Z,78.31
2023-10-19T05:35:51.894Z,78.02
2023-10-19T05:38:23.963Z,78.15
2023-10-19T05:40:53.370Z,77.82
2023-10-19T05:43:21.760Z,78.09
2023-10-19T05:45:51.770Z,77.62
2023-10-19T05:48:21.621Z,77.58
2023-10-19T05:50:50.992Z,77.66
2023-10-19T05:53:23.815Z,77.44
2023-10-19T05:55:52.067Z,77.59
2023-10-19T05:58:21.634Z,77.47
2023-10-19T06:00:53.536Z,77.14
2023-10-19T06:03:22.092Z,77.36
2023-10-19T06:05:50.400Z,76.95
2023-10-19T06:08:19.190Z,77.13
2023-10-19T06:10:53.063Z,77.14
2023-10-19T06:13:23.426Z,76.61
2023-10-19T06:15:53.259Z,76.90
2023-10-19T06:18:22.243Z,76.89
2023-10-19T06:20:52.713Z,76.30
2023-10-19T06:23:21.113Z,76.31
2023-10-19T06:25:52.754Z,76.30
2023-10-19T06:28:20.810Z,75.95
2023-10-19T06:30:49.586Z,76.17
2023-10-19T06:33:18.380Z,76.32
2023-10-19T06:35:46.306Z,76.13
2023-10-19T06:38:14.436Z,75.74
2023-10-19T06:40:43.589Z,75.85
2023-10-19T06:43:12.736Z,75.64
2023-10-19T06:45:49.188Z,75.56
2023-10-19T06:48:17.091Z,75.84
2023-10-19T06:50:49.658Z,75.99
2023-10-19T06:53:20.548Z,75.88
2023-10-19T06:55:50.594Z,76.04
2023-10-19T06:58:21.360Z,75.98
2023-10-19T07:00:57.820Z,75.98
2023-10-19T07:03:31.932Z,75.97
2023-10-19T07:06:04.848Z,76.06
2023-10-19T07:08:37.454Z,76.12
2023-10-19T07:11:05.659Z,76.23
2023-10-19T07:13:34.883Z,76.46
2023-10-19T07:19:03.142Z,77.06
2023-10-19T07:21:33.473Z,77.09
2023-10-19T07:24:06.287Z,77.16
2023-10-19T07:26:42.826Z,77.24
2023-10-19T07:29:11.590Z,77.26
2023-10-19T07:31:40.367Z,77.40
2023-10-19T07:34:09.963Z,77.32
2023-10-19T07:36:38.284Z,77.31
2023-10-19T07:39:15.599Z,77.26
2023-10-19T07:41:45.371Z,77.49
2023-10-19T07:44:13.798Z,77.34
2023-10-19T07:46:42.663Z,77.28
2023-10-19T07:49:10.540Z,77.13
2023-10-19T07:51:53.688Z,77.03
2023-10-19T07:54:24.189Z,76.86
2023-10-19T07:56:52.304Z,76.91
2023-10-19T07:59:23.155Z,76.88
2023-10-19T08:01:53.230Z,76.76
2023-10-19T08:04:21.996Z,76.79
2023-10-19T08:06:50.012Z,76.69
2023-10-19T08:09:24.185Z,76.74
2023-10-19T08:11:56.738Z,76.68
2023-10-19T08:14:27.873Z,76.56
2023-10-19T08:16:58.025Z,76.66
2023-10-19T08:19:28.331Z,76.78
2023-10-19T08:21:56.880Z,76.94
2023-10-19T08:24:25.141Z,76.95
2023-10-19T08:26:53.159Z,77.02
2023-10-19T08:29:21.321Z,76.98
2023-10-19T08:31:49.786Z,77.42
2023-10-19T08:34:18.780Z,77.37
2023-10-19T08:36:47.113Z,77.59
2023-10-19T08:39:15.903Z,77.53
2023-10-19T08:41:44.499Z,77.74
2023-10-19T08:44:12.823Z,77.78
2023-10-19T08:46:46.662Z,77.76
2023-10-19T08:49:16.868Z,77.82
2023-10-19T08:51:46.857Z,77.89
2023-10-19T08:54:16.582Z,78.14
2023-10-19T08:56:45.868Z,78.03
2023-10-19T08:59:16.569Z,78.14
2023-10-19T09:01:47.357Z,77.88
2023-10-19T09:04:18.064Z,77.74
2023-10-19T09:06:46.703Z,77.91
2023-10-19T09:09:18.064Z,77.75
2023-10-19T09:11:50.133Z,77.65
2023-10-19T09:14:34.880Z,77.64
2023-10-19T09:17:09.559Z,77.55
2023-10-19T09:19:43.206Z,77.68
2023-10-19T09:22:19.825Z,77.68
2023-10-19T09:24:54.608Z,77.44
2023-10-19T09:27:23.204Z,77.64
2023-10-19T09:29:52.990Z,77.79
2023-10-19T09:32:21.608Z,77.66
2023-10-19T09:34:54.425Z,77.65
2023-10-19T09:37:26.136Z,78.00
2023-10-19T09:39:57.049Z,77.90
2023-10-19T09:42:33.462Z,77.96
2023-10-19T09:45:07.063Z,78.34
2023-10-19T09:47:40.544Z,78.50
2023-10-19T09:50:12.515Z,78.80
2023-10-19T09:52:41.193Z,78.72
2023-10-19T09:55:29.064Z,78.95
2023-10-19T09:58:08.434Z,78.84
2023-10-19T10:00:37.048Z,78.95
2023-10-19T10:03:09.814Z,78.86
2023-10-19T10:05:44.379Z,78.97
2023-10-19T10:08:18.272Z,78.97
2023-10-19T10:10:52.529Z,78.84
2023-10-19T10:13:29.891Z,78.90
2023-10-19T10:16:00.138Z,79.06
2023-10-19T10:18:34.583Z,79.02
2023-10-19T10:21:11.562Z,78.96
2023-10-19T10:23:51.446Z,78.83
2023-10-19T10:26:21.754Z,78.99
2023-10-19T10:29:10.843Z,78.84
2023-10-19T10:31:44.201Z,79.38
2023-10-19T10:34:32.367Z,79.16
2023-10-19T10:37:05.104Z,79.57
2023-10-19T10:39:41.821Z,79.48
2023-10-19T10:42:11.367Z,79.77
2023-10-19T10:44:45.149Z,79.67
2023-10-19T10:47:24.404Z,80.15
2023-10-19T10:49:57.469Z,80.18
2023-10-19T10:52:31.183Z,80.44
2023-10-19T10:55:08.145Z,80.45
2023-10-19T10:57:37.890Z,80.65
2023-10-19T11:00:07.825Z,80.73
2023-10-19T11:02:37.461Z,80.91
2023-10-19T11:05:06.282Z,81.21
2023-10-19T11:07:34.471Z,81.25
2023-10-19T11:10:03.067Z,81.36
2023-10-19T11:12:31.590Z,81.53
2023-10-19T11:15:01.534Z,81.57
2023-10-19T11:17:32.806Z,81.86
2023-10-19T11:20:05.970Z,82.15
2023-10-19T11:22:35.067Z,82.30
2023-10-19T11:25:25.765Z,82.53
2023-10-19T11:27:56.981Z,82.71
2023-10-19T11:30:26.001Z,82.78
2023-10-19T11:32:58.342Z,82.83
2023-10-19T11:35:32.218Z,83.06
2023-10-19T11:38:03.897Z,83.21
2023-10-19T11:40:32.230Z,83.44
2023-10-19T11:43:02.554Z,83.71
2023-10-19T11:45:31.153Z,83.73
2023-10-19T11:48:01.231Z,83.89
2023-10-19T11:50:30.178Z,83.96
2023-10-19T11:52:58.704Z,83.82
2023-10-19T11:55:26.944Z,83.95
2023-10-19T11:57:54.712Z,83.98
2023-10-19T12:00:35.211Z,83.99
2023-10-19T12:03:07.936Z,84.01
2023-10-19T12:05:39.956Z,84.22
2023-10-19T12:08:08.156Z,84.58
2023-10-19T12:10:39.663Z,84.75
2023-10-19T12:13:13.261Z,84.64
2023-10-19T12:15:42.358Z,84.85
2023-10-19T12:18:10.306Z,84.98
2023-10-19T12:20:39.337Z,85.17
2023-10-19T12:23:07.815Z,84.96
2023-10-19T12:25:53.853Z,85.02
2023-10-19T12:28:29.649Z,85.53
2023-10-19T12:30:57.772Z,85.32
2023-10-19T12:33:25.749Z,85.36
2023-10-19T12:36:02.542Z,85.52
2023-10-19T12:38:30.923Z,85.38
2023-10-19T12:41:00.262Z,85.00
2023-10-19T12:43:31.309Z,85.13
2023-10-19T12:45:59.362Z,85.10
2023-10-19T12:48:35.097Z,85.17
2023-10-19T12:51:12.811Z,85.38
2023-10-19T12:53:41.477Z,85.55
2023-10-19T12:56:11.757Z,85.28
2023-10-19T12:58:39.596Z,85.38
2023-10-19T13:01:10.174Z,85.32
2023-10-19T13:03:39.771Z,85.30
2023-10-19T13:06:08.903Z,85.60
2023-10-19T13:08:39.326Z,85.37
2023-10-19T13:11:16.686Z,85.30
2023-10-19T13:13:48.148Z,85.57
2023-10-19T13:16:17.019Z,85.45
2023-10-19T13:18:45.582Z,85.65
2023-10-19T13:21:18.575Z,85.59
2023-10-19T13:23:46.813Z,85.66
2023-10-19T13:26:18.702Z,85.87
2023-10-19T13:28:48.451Z,85.67
2023-10-19T13:31:17.134Z,85.89
2023-10-19T13:33:46.834Z,86.20
2023-10-19T13:36:15.135Z,86.03
2023-10-19T13:38:44.492Z,85.95
2023-10-19T13:41:13.165Z,85.73
2023-10-19T13:43:43.994Z,86.01
2023-10-19T13:46:12.626Z,85.92
2023-10-19T13:48:41.188Z,86.07
2023-10-19T13:51:16.947Z,85.98
2023-10-19T13:53:46.586Z,86.12
2023-10-19T13:56:18.221Z,86.18
2023-10-19T13:58:48.528Z,86.18
2023-10-19T14:01:18.183Z,86.21
2023-10-19T14:03:47.435Z,86.25
2023-10-19T14:06:16.404Z,86.31
2023-10-19T14:08:44.373Z,86.27
2023-10-19T14:11:12.997Z,86.21
2023-10-19T14:13:44.737Z,86.18
2023-10-19T14:16:12.903Z,86.23
2023-10-19T14:18:41.676Z,86.15
2023-10-19T14:21:17.710Z,86.43
2023-10-19T14:23:47.181Z,86.68
2023-10-19T14:26:16.011Z,86.68
2023-10-19T14:28:44.445Z,86.67
2023-10-19T14:31:13.605Z,86.90
2023-10-19T14:33:41.437Z,86.77
2023-10-19T14:36:10.371Z,86.95
2023-10-19T14:38:40.764Z,86.98
2023-10-19T14:41:10.765Z,86.87
2023-10-19T14:43:39.415Z,87.02
2023-10-19T14:46:07.908Z,87.26
2023-10-19T14:48:38.923Z,87.06
2023-10-19T14:51:08.325Z,87.20
2023-10-19T14:53:36.050Z,87.32
2023-10-19T14:56:05.084Z,87.33
2023-10-19T14:58:33.396Z,87.32
2023-10-19T15:01:01.461Z,87.39
2023-10-19T15:03:30.562Z,87.55
2023-10-19T15:06:01.064Z,87.66
2023-10-19T15:08:32.515Z,88.00
2023-10-19T15:11:01.392Z,88.04
2023-10-19T15:13:29.348Z,87.92
2023-10-19T15:15:57.947Z,87.85
2023-10-19T15:18:26.610Z,88.14
2023-10-19T15:20:54.368Z,88.21
2023-10-19T15:23:22.668Z,88.43
2023-10-19T15:25:51.087Z,88.45
2023-10-19T15:28:18.893Z,88.44
2023-10-19T15:30:46.745Z,88.47
2023-10-19T15:33:15.991Z,88.74
2023-10-19T15:35:43.815Z,88.82
2023-10-19T15:38:11.769Z,88.92
2023-10-19T15:40:41.621Z,88.89
2023-10-19T15:43:11.005Z,89.06
2023-10-19T15:45:42.527Z,89.34
2023-10-19T15:48:13.210Z,89.33
2023-10-19T15:50:44.675Z,89.44
2023-10-19T15:53:13.139Z,89.41
2023-10-19T15:55:41.990Z,89.91
2023-10-19T15:58:12.499Z,89.99
2023-10-19T16:00:41.312Z,89.78
2023-10-19T16:03:09.826Z,89.79
2023-10-19T16:05:38.007Z,89.73
2023-10-19T16:08:07.535Z,90.15
2023-10-19T16:10:35.636Z,90.19
2023-10-19T16:13:04.558Z,90.37
2023-10-19T16:15:32.869Z,90.28
2023-10-19T16:18:01.116Z,90.51
2023-10-19T16:20:30.038Z,90.56
2023-10-19T16:23:00.203Z,90.65
2023-10-19T16:25:28.153Z,90.75
2023-10-19T16:27:56.366Z,90.85
2023-10-19T16:30:24.385Z,90.89
2023-10-19T16:32:52.603Z,91.05
2023-10-19T16:35:20.900Z,90.88
2023-10-19T16:37:49.777Z,91.27
2023-10-19T16:40:17.856Z,91.09
2023-10-19T16:42:46.033Z,91.30
2023-10-19T16:45:14.690Z,91.39
2023-10-19T16:47:43.964Z,91.52
2023-10-19T16:50:20.380Z,91.54
2023-10-19T16:52:50.275Z,91.56
2023-10-19T16:55:19.907Z,91.55
2023-10-19T16:57:48.094Z,91.58
2023-10-19T17:00:17.610Z,91.77
2023-10-19T17:02:45.783Z,91.77
2023-10-19T17:05:14.338Z,91.97
2023-10-19T17:07:42.451Z,91.83
2023-10-19T17:10:10.981Z,91.89
2023-10-19T17:12:39.857Z,92.16
2023-10-19T17:15:13.860Z,91.92
2023-10-19T17:17:43.422Z,92.07
2023-10-19T17:20:12.564Z,92.12
2023-10-19T17:22:40.774Z,92.20
2023-10-19T17:25:09.220Z,92.28
2023-10-19T17:27:39.414Z,92.23
2023-10-19T17:30:08.107Z,92.24
2023-10-19T17:32:36.406Z,92.36
2023-10-19T17:35:06.168Z,92.48
2023-10-19T17:37:34.707Z,92.51
2023-10-19T17:40:05.911Z,92.69
2023-10-19T17:42:33.870Z,92.58
2023-10-19T17:45:01.652Z,92.66
2023-10-19T17:47:30.076Z,93.01
2023-10-19T17:49:58.365Z,93.01
2023-10-19T17:52:26.173Z,92.69
2023-10-19T17:54:54.924Z,92.88
2023-10-19T17:57:24.187Z,92.88
2023-10-19T17:59:52.011Z,92.96
2023-10-19T18:02:20.498Z,93.14
2023-10-19T18:04:54.334Z,93.07
2023-10-19T18:07:23.750Z,93.00
2023-10-19T18:09:52.019Z,93.07
2023-10-19T18:12:20.712Z,92.89
2023-10-19T18:14:50.007Z,92.90
2023-10-19T18:17:19.842Z,93.09
2023-10-19T18:19:52.426Z,93.21
2023-10-19T18:22:20.656Z,93.19
2023-10-19T18:24:48.728Z,93.38
2023-10-19T18:27:17.110Z,93.51
2023-10-19T18:29:45.458Z,93.22
2023-10-19T18:32:13.290Z,93.31
2023-10-19T18:34:41.316Z,93.38
2023-10-19T18:37:12.889Z,93.39
2023-10-19T18:39:40.755Z,93.77
2023-10-19T18:42:12.829Z,93.77
2023-10-19T18:44:41.036Z,93.64
2023-10-19T18:47:09.304Z,93.91
2023-10-19T18:49:37.522Z,93.88
2023-10-19T18:52:08.487Z,94.01
2023-10-19T18:54:36.505Z,94.03
2023-10-19T18:57:04.815Z,94.19
2023-10-19T18:59:33.388Z,94.04
2023-10-19T19:02:01.380Z,94.31
2023-10-19T19:04:29.442Z,94.24
2023-10-19T19:06:57.591Z,94.30
2023-10-19T19:09:28.196Z,94.38
2023-10-19T19:11:56.905Z,94.45
2023-10-19T19:14:25.251Z,94.39
2023-10-19T19:16:53.183Z,94.48
2023-10-19T19:19:21.252Z,94.36
2023-10-19T19:21:49.470Z,94.58
2023-10-19T19:24:17.283Z,94.38
2023-10-19T19:26:45.746Z,94.77
2023-10-19T19:29:13.976Z,94.79
2023-10-19T19:31:41.806Z,94.88
2023-10-19T19:34:09.770Z,94.48
2023-10-19T19:36:37.878Z,94.72
2023-10-19T19:39:08.448Z,94.74
2023-10-19T19:41:36.362Z,94.91
2023-10-19T19:44:04.812Z,94.65
2023-10-19T19:46:32.901Z,94.97
2023-10-19T19:49:02.703Z,95.01
2023-10-19T19:51:34.391Z,95.16
2023-10-19T19:54:04.505Z,95.02
2023-10-19T19:56:32.957Z,95.09
2023-10-19T19:59:01.183Z,95.36
2023-10-19T20:01:28.969Z,95.28
2023-10-19T20:03:57.383Z,95.22
2023-10-19T20:06:25.197Z,95.34
2023-10-19T20:08:52.906Z,95.25
2023-10-19T20:11:21.866Z,95.20
2023-10-19T20:13:49.670Z,95.55
2023-10-19T20:16:17.486Z,95.55
2023-10-19T20:18:46.080Z,95.53
2023-10-19T20:21:16.520Z,95.46
2023-10-19T20:23:44.294Z,95.51
2023-10-19T20:26:16.015Z,95.90
2023-10-19T20:28:44.227Z,95.63
2023-10-19T20:31:12.093Z,95.53
2023-10-19T20:33:40.761Z,95.41
2023-10-19T20:36:08.522Z,95.68
2023-10-19T20:38:37.445Z,95.61
2023-10-19T20:41:06.031Z,95.45
2023-10-19T20:43:34.800Z,95.72
2023-10-19T20:46:05.870Z,95.70
2023-10-19T20:48:34.123Z,95.99
2023-10-19T20:51:04.030Z,95.76
2023-10-19T20:53:31.806Z,95.87
2023-10-19T20:56:01.489Z,95.75
2023-10-19T20:58:29.684Z,95.80
2023-10-19T21:01:06.561Z,95.81
2023-10-19T21:03:35.576Z,96.06
2023-10-19T21:06:14.629Z,96.14
2023-10-19T21:08:43.302Z,96.13
2023-10-19T21:11:21.971Z,96.19
2023-10-19T21:13:50.720Z,96.45
2023-10-19T21:16:18.526Z,96.50
2023-10-19T21:18:46.520Z,96.39
2023-10-19T21:21:15.069Z,96.21
2023-10-19T21:23:42.894Z,96.29
2023-10-19T21:26:12.791Z,96.01
2023-10-19T21:28:44.428Z,95.89
2023-10-19T21:31:12.895Z,96.00
2023-10-19T21:33:40.841Z,96.30
2023-10-19T21:36:09.014Z,96.15
2023-10-19T21:38:39.267Z,96.07
2023-10-19T21:41:08.684Z,96.36
2023-10-19T21:43:37.442Z,96.31
2023-10-19T21:46:06.107Z,96.41
2023-10-19T21:48:34.288Z,96.54
2023-10-19T21:51:02.484Z,96.43
2023-10-19T21:53:30.637Z,96.23
2023-10-19T21:55:59.103Z,96.50
2023-10-19T21:58:27.199Z,96.49
2023-10-19T22:00:58.059Z,96.45
2023-10-19T22:03:26.508Z,96.06
2023-10-19T22:05:55.011Z,95.85
2023-10-19T22:08:23.186Z,96.00
2023-10-19T22:10:51.509Z,95.97
2023-10-19T22:13:19.349Z,95.96
2023-10-19T22:15:47.434Z,96.19
2023-10-19T22:18:15.701Z,96.14
2023-10-19T22:20:43.752Z,96.10
2023-10-19T22:23:11.754Z,96.00
2023-10-19T22:25:40.259Z,96.05
2023-10-19T22:28:08.941Z,96.12
2023-10-19T22:30:36.870Z,95.92
2023-10-19T22:33:04.944Z,96.15
2023-10-19T22:35:32.954Z,96.08
2023-10-19T22:38:02.361Z,95.89
2023-10-19T22:40:30.367Z,96.06
2023-10-19T22:42:58.620Z,96.11
2023-10-19T22:45:26.561Z,95.84
2023-10-19T22:47:54.939Z,96.08
2023-10-19T22:50:23.130Z,96.22
2023-10-19T22:52:51.140Z,95.97
2023-10-19T22:55:19.653Z,95.98
2023-10-19T22:57:52.273Z,96.07
2023-10-19T23:00:21.330Z,96.13
2023-10-19T23:02:49.915Z,96.23
2023-10-19T23:05:18.656Z,96.30
2023-10-19T23:07:47.531Z,96.19
2023-10-19T23:10:20.356Z,96.39
2023-10-19T23:12:48.723Z,96.28
2023-10-19T23:15:20.596Z,96.30
2023-10-19T23:17:52.115Z,96.21
2023-10-19T23:20:29.338Z,96.20
2023-10-19T23:22:59.689Z,96.36
2023-10-19T23:25:29.650Z,96.48
2023-10-19T23:27:58.289Z,96.24
2023-10-19T23:30:26.350Z,96.18
2023-10-19T23:32:55.745Z,96.39
2023-10-19T23:35:23.942Z,96.40
2023-10-19T23:37:52.345Z,96.23
2023-10-19T23:40:20.903Z,96.36
2023-10-19T23:42:48.638Z,96.59
2023-10-19T23:45:16.934Z,96.56
2023-10-19T23:47:48.374Z,96.37
2023-10-19T23:50:16.424Z,96.38
2023-10-19T23:52:44.535Z,96.48
2023-10-19T23:55:14.638Z,96.72
2023-10-19T23:57:44.222Z,96.81
